Alexandra N — A8NR5 — position and weather

sailwx.info

Track history (hours):
 
Tides and Currents Weather Stations Pressure Air Temp Water Temp Dewpoint Dewpoint Depression Visibility Wind Speed Wind Dir Waves Ship Positions

Alexandra N

Last reported at 2015-Feb-01 17:31 UTC. Time now 2015-Feb-01 18:16 UTC.
Position N 36°09' W 005°18'.

Length 184 m; draft 7.7 m.

Type: Cargo ship. MMSI: 636091436.

Date/timePositionNaut miles runAvg speedWind from/ knotsBaromVisibWave heightAir tempDewpointWater temp
2015-Feb-01 17:31N 36°09' W 005°18'0 0.0
2015-Feb-01 16:25N 36°09' W 005°18'0 0.1
2015-Feb-01 15:31N 36°09' W 005°18'0 0.0
2015-Feb-01 14:31N 36°09' W 005°18'0 0.1
2015-Feb-01 13:31N 36°09' W 005°18'0 0.1
2015-Feb-01 12:31N 36°09' W 005°18'0 0.1
2015-Feb-01 11:25N 36°09' W 005°18'0 0.0
2015-Feb-01 10:25N 36°09' W 005°18'0 0.0
2015-Feb-01 09:28N 36°09' W 005°18'0 0.0
2015-Feb-01 08:30N 36°09' W 005°18'0 0.0
2015-Feb-01 07:24N 36°09' W 005°18'0 0.0
2015-Feb-01 06:33N 36°09' W 005°18'0 0.0
2015-Feb-01 05:30N 36°09' W 005°18'0 0.0
2015-Feb-01 04:33N 36°09' W 005°18'0 0.0
2015-Feb-01 03:33N 36°09' W 005°18'0 0.1
2015-Feb-01 02:30N 36°09' W 005°18'0 0.0
2015-Feb-01 01:33N 36°09' W 005°18'0 0.1
2015-Feb-01 00:33N 36°09' W 005°18'0 0.0
2015-Jan-31 23:33N 36°09' W 005°18'0 0.0
2015-Jan-31 22:33N 36°09' W 005°18'0 0.0
2015-Jan-31 21:18N 36°09' W 005°18'0 0.0
2015-Jan-31 20:06N 36°09' W 005°18'0 0.0
2015-Jan-31 19:33N 36°09' W 005°18'0 0.1
2015-Jan-31 18:33N 36°09' W 005°18'0 0.0
2015-Jan-31 17:33N 36°09' W 005°18'0 0.1
2015-Jan-31 16:33N 36°09' W 005°18'0 0.0
2015-Jan-31 15:27N 36°09' W 005°18'0 0.0
2015-Jan-31 14:30N 36°09' W 005°18'0 0.0
2015-Jan-31 13:33N 36°09' W 005°18'0 0.0
2015-Jan-31 12:30N 36°09' W 005°18'0 0.1
2015-Jan-31 11:30N 36°09' W 005°18'0 0.0
2015-Jan-31 10:33N 36°09' W 005°18'0 0.1
2015-Jan-31 09:33N 36°09' W 005°18'0 0.1
2015-Jan-31 08:33N 36°09' W 005°18'0 0.0
2015-Jan-31 07:30N 36°09' W 005°18'0 0.1
2015-Jan-31 06:27N 36°09' W 005°18'0 0.0
2015-Jan-31 05:33N 36°09' W 005°18'0 0.0
2015-Jan-31 04:27N 36°09' W 005°18'0 0.0
2015-Jan-31 03:30N 36°09' W 005°18'0 0.0
2015-Jan-31 02:33N 36°09' W 005°18'0 0.0
2015-Jan-31 01:30N 36°09' W 005°18'0 0.0
2015-Jan-31 00:30N 36°09' W 005°18'0 0.0
2015-Jan-30 23:33N 36°09' W 005°18'0 0.0
2015-Jan-30 22:33N 36°09' W 005°18'0 0.1
2015-Jan-30 21:33N 36°09' W 005°18'0 0.1
2015-Jan-30 20:33N 36°09' W 005°18'0 0.0
2015-Jan-30 19:32N 36°09' W 005°18'0 0.0
2015-Jan-30 18:05N 36°09' W 005°18'0 0.0
2015-Jan-30 17:29N 36°09' W 005°18'0 0.0
2015-Jan-30 16:32N 36°09' W 005°18'0 0.0
2015-Jan-30 15:29N 36°09' W 005°18'0 0.0
2015-Jan-30 13:29N 36°09' W 005°18'0 0.0
2015-Jan-30 12:29N 36°09' W 005°18'0 0.0
2015-Jan-30 11:26N 36°09' W 005°18'0 0.2
2015-Jan-30 10:23N 36°09' W 005°18'3 3.6
2015-Jan-30 09:33N 36°09' W 005°14'3 2.2
2015-Jan-30 08:06N 36°11' W 005°11'5 1.8
2015-Jan-30 05:34N 36°09' W 005°16'2 2.4
2015-Jan-30 04:32N 36°08' W 005°13'3 2.4
2015-Jan-30 03:23N 36°09' W 005°16'0 0.2
2015-Jan-30 01:13N 36°09' W 005°16'2 2.5
2015-Jan-30 00:25N 36°07' W 005°16'1 1.6
2015-Jan-29 23:30N 36°07' W 005°17'0 0.1
2015-Jan-29 22:30N 36°07' W 005°17'0 0.1
2015-Jan-29 21:33N 36°07' W 005°18'0 0.0
2015-Jan-29 20:33N 36°07' W 005°18'0 0.1
2015-Jan-29 19:30N 36°07' W 005°17'0 0.1
2015-Jan-29 18:33N 36°07' W 005°18'0 0.1
2015-Jan-29 17:30N 36°07' W 005°17'0 0.1
2015-Jan-29 16:30N 36°07' W 005°18'0 0.0
2015-Jan-29 15:32N 36°07' W 005°18'0 0.0
2015-Jan-29 14:32N 36°07' W 005°18'0 0.0
2015-Jan-29 13:32N 36°07' W 005°18'0 0.0
2015-Jan-29 12:32N 36°07' W 005°18'0 0.0
2015-Jan-29 11:32N 36°07' W 005°18'0 0.0
2015-Jan-29 10:32N 36°07' W 005°18'0 0.0
2015-Jan-29 09:32N 36°07' W 005°18'0 0.1
2015-Jan-29 08:32N 36°07' W 005°18'0 0.0
2015-Jan-29 07:32N 36°07' W 005°18'0 0.0
2015-Jan-29 06:11N 36°07' W 005°18'0 0.1
2015-Jan-29 05:32N 36°07' W 005°18'0 0.0
2015-Jan-29 04:17N 36°07' W 005°18'0 0.0
2015-Jan-29 03:32N 36°07' W 005°18'0 0.0
2015-Jan-29 02:32N 36°07' W 005°18'0 0.0
2015-Jan-29 01:29N 36°07' W 005°18'0 0.0
2015-Jan-29 00:23N 36°07' W 005°18'0 0.1
2015-Jan-28 23:32N 36°07' W 005°18'0 0.0
2015-Jan-28 22:29N 36°07' W 005°18'0 0.0
2015-Jan-28 21:32N 36°07' W 005°18'0 0.0
2015-Jan-28 20:29N 36°07' W 005°18'0 0.0
2015-Jan-28 19:32N 36°07' W 005°18'0 0.1
2015-Jan-28 18:32N 36°07' W 005°18'0 0.0
2015-Jan-28 17:32N 36°07' W 005°18'0 0.0
2015-Jan-28 16:32N 36°07' W 005°18'0 0.0
2015-Jan-28 15:23N 36°07' W 005°18'0 0.0
2015-Jan-28 14:29N 36°07' W 005°18'0 0.0
2015-Jan-28 13:29N 36°07' W 005°18'0 0.0
2015-Jan-28 12:29N 36°07' W 005°18'0 0.0
2015-Jan-28 11:32N 36°07' W 005°18'0 0.0
2015-Jan-28 10:32N 36°07' W 005°18'0 0.0
2015-Jan-28 09:32N 36°07' W 005°18'0 0.1
2015-Jan-28 08:32N 36°07' W 005°18'0 0.0
2015-Jan-28 07:32N 36°07' W 005°18'0 0.1
2015-Jan-28 06:32N 36°07' W 005°18'0 0.0
2015-Jan-28 03:32N 36°07' W 005°18'0 0.0
2015-Jan-28 02:28N 36°07' W 005°18'0 0.0
2015-Jan-28 01:31N 36°07' W 005°18'0 0.0
2015-Jan-28 00:28N 36°07' W 005°18'0 0.0
2015-Jan-27 23:31N 36°07' W 005°18'0 0.0
2015-Jan-27 22:28N 36°07' W 005°18'0 0.0
2015-Jan-27 21:31N 36°07' W 005°18'0 0.0
2015-Jan-27 20:28N 36°07' W 005°18'0 0.0
2015-Jan-27 19:19N 36°07' W 005°18'0 0.0
2015-Jan-27 18:31N 36°07' W 005°18'0 0.0
2015-Jan-27 17:28N 36°07' W 005°18'0 0.1
2015-Jan-27 16:28N 36°07' W 005°18'0 0.1
2015-Jan-27 15:28N 36°07' W 005°18'0 0.1
2015-Jan-27 14:28N 36°07' W 005°18'0 0.0
2015-Jan-27 13:31N 36°07' W 005°18'0 0.0
2015-Jan-27 12:31N 36°07' W 005°18'0 0.0
2015-Jan-27 11:31N 36°07' W 005°18'0 0.0
2015-Jan-27 10:31N 36°07' W 005°18'0 0.0
2015-Jan-27 09:31N 36°07' W 005°18'0 0.1
2015-Jan-27 08:31N 36°07' W 005°18'0 0.1
2015-Jan-27 07:31N 36°07' W 005°18'0 0.1
2015-Jan-27 06:28N 36°07' W 005°18'0 0.0
2015-Jan-27 05:31N 36°07' W 005°18'0 0.1
2015-Jan-27 04:31N 36°07' W 005°18'0 0.1
2015-Jan-27 03:31N 36°07' W 005°18'0 0.1
2015-Jan-27 02:31N 36°07' W 005°18'0 0.0
2015-Jan-27 01:31N 36°07' W 005°18'0 0.1
2015-Jan-27 00:31N 36°07' W 005°18'0 0.1
2015-Jan-26 23:28N 36°07' W 005°18'0 0.1
2015-Jan-26 22:31N 36°07' W 005°18'0 0.2
2015-Jan-26 21:31N 36°07' W 005°18'0 0.0
2015-Jan-26 20:31N 36°07' W 005°18'0 0.1
2015-Jan-26 19:31N 36°07' W 005°18'0 0.1
2015-Jan-26 18:31N 36°07' W 005°18'0 0.1
2015-Jan-26 17:28N 36°07' W 005°18'0 0.0
2015-Jan-26 16:31N 36°07' W 005°18'0 0.0
2015-Jan-26 15:31N 36°07' W 005°18'0 0.2
2015-Jan-26 14:28N 36°07' W 005°18'0 0.1
2015-Jan-26 13:34N 36°07' W 005°18'0 0.0
2015-Jan-26 12:30N 36°07' W 005°18'0 0.0
2015-Jan-26 11:33N 36°07' W 005°18'0 0.0
2015-Jan-26 10:33N 36°07' W 005°18'0 0.0
2015-Jan-26 09:33N 36°07' W 005°18'0 0.0
2015-Jan-26 08:33N 36°07' W 005°18'0 0.1
2015-Jan-26 07:30N 36°07' W 005°18'0 0.1
2015-Jan-26 06:33N 36°07' W 005°18'0 0.1
2015-Jan-26 05:33N 36°07' W 005°18'0 0.1
2015-Jan-26 04:33N 36°07' W 005°18'0 0.0
2015-Jan-26 03:33N 36°07' W 005°18'0 0.0
2015-Jan-26 02:33N 36°07' W 005°18'0 0.1
2015-Jan-26 01:09N 36°07' W 005°18'0 0.1
2015-Jan-26 00:33N 36°07' W 005°18'0 0.0
2015-Jan-25 23:33N 36°07' W 005°18'0 0.0
2015-Jan-25 22:30N 36°07' W 005°18'0 0.0
2015-Jan-25 21:33N 36°07' W 005°18'0 0.1
2015-Jan-25 20:33N 36°07' W 005°18'0 0.0
2015-Jan-25 19:33N 36°07' W 005°18'0 0.0
2015-Jan-25 18:33N 36°07' W 005°18'0 0.1
2015-Jan-25 17:33N 36°07' W 005°18'0 0.0
2015-Jan-25 16:33N 36°07' W 005°18'0 0.0
2015-Jan-25 15:33N 36°07' W 005°18'0 0.1
2015-Jan-25 14:33N 36°07' W 005°18'0 0.1
2015-Jan-25 13:30N 36°07' W 005°18'0 0.0
2015-Jan-25 12:33N 36°07' W 005°18'0 0.0
2015-Jan-25 11:33N 36°07' W 005°18'0 0.0
2015-Jan-25 10:33N 36°07' W 005°18'0 0.1
2015-Jan-25 09:33N 36°07' W 005°18'0 0.1
2015-Jan-25 08:33N 36°07' W 005°18'0 0.0
2015-Jan-25 07:33N 36°07' W 005°18'0 0.1
2015-Jan-25 06:33N 36°07' W 005°18'0 0.0
2015-Jan-25 05:30N 36°07' W 005°18'0 0.0
2015-Jan-25 04:33N 36°07' W 005°18'0 0.2
2015-Jan-25 03:33N 36°07' W 005°18'0 0.0
2015-Jan-25 02:33N 36°07' W 005°18'0 0.1
2015-Jan-25 01:33N 36°07' W 005°18'0 0.0
2015-Jan-25 00:33N 36°07' W 005°18'0 0.1
2015-Jan-24 23:33N 36°07' W 005°18'0 0.1
2015-Jan-24 22:29N 36°07' W 005°18'0 0.1
2015-Jan-24 21:32N 36°07' W 005°18'0 0.0
2015-Jan-24 20:32N 36°07' W 005°18'0 0.1
2015-Jan-24 19:32N 36°07' W 005°18'0 0.0
2015-Jan-24 18:32N 36°07' W 005°18'0 0.0
2015-Jan-24 17:32N 36°07' W 005°18'0 0.0
2015-Jan-24 16:32N 36°07' W 005°18'0 0.2
2015-Jan-24 15:29N 36°07' W 005°18'0 0.1
2015-Jan-24 14:23N 36°07' W 005°18'0 0.0
2015-Jan-24 13:32N 36°07' W 005°18'0 0.1
2015-Jan-24 12:32N 36°07' W 005°18'0 0.1
2015-Jan-24 11:32N 36°07' W 005°18'0 0.2
2015-Jan-24 10:32N 36°07' W 005°18'0 0.2
2015-Jan-24 09:32N 36°07' W 005°18'0 0.2
2015-Jan-24 08:32N 36°07' W 005°18'0 0.1
2015-Jan-24 07:32N 36°07' W 005°18'0 0.0
2015-Jan-24 06:32N 36°07' W 005°18'0 0.0
2015-Jan-24 05:32N 36°07' W 005°18'0 0.1
2015-Jan-24 04:32N 36°07' W 005°18'0 0.1
2015-Jan-24 03:32N 36°07' W 005°18'0 0.0
2015-Jan-24 02:32N 36°07' W 005°18'0 0.0
2015-Jan-24 01:32N 36°07' W 005°18'0 0.0
2015-Jan-24 00:32N 36°07' W 005°18'0 0.0
2015-Jan-23 23:14N 36°07' W 005°18'0 0.0
2015-Jan-23 22:32N 36°07' W 005°18'0 0.1
2015-Jan-23 21:32N 36°07' W 005°18'0 0.1
2015-Jan-23 20:32N 36°07' W 005°18'0 0.0
2015-Jan-23 19:32N 36°07' W 005°18'0 0.0
2015-Jan-23 18:32N 36°07' W 005°18'0 0.1
2015-Jan-23 17:32N 36°07' W 005°18'0 0.0
2015-Jan-23 16:32N 36°07' W 005°18'0 0.1
2015-Jan-23 15:29N 36°07' W 005°18'0 0.3
2015-Jan-23 14:34N 36°07' W 005°18'4 4.1
2015-Jan-23 13:34N 36°03' W 005°17'1111.4
2015-Jan-23 12:33N 35°57' W 005°29'  
Track history (hours):
 
Tides and Currents Weather Stations Pressure Air Temp Water Temp Dewpoint Dewpoint Depression Visibility Wind Speed Wind Dir Waves Ship Positions

Alexandra N

Last reported at 2015-Feb-01 17:31 UTC. Time now 2015-Feb-01 18:16 UTC.
Position N 36°09' W 005°18'.

Length 184 m; draft 7.7 m.

Type: Cargo ship. MMSI: 636091436.

Date/timePositionNaut miles runAvg speedWind from/ knotsBaromVisibWave heightAir tempDewpointWater temp
2015-Feb-01 17:31N 36°09' W 005°18'0 0.0
2015-Feb-01 16:25N 36°09' W 005°18'0 0.1
2015-Feb-01 15:31N 36°09' W 005°18'0 0.0
2015-Feb-01 14:31N 36°09' W 005°18'0 0.1
2015-Feb-01 13:31N 36°09' W 005°18'0 0.1
2015-Feb-01 12:31N 36°09' W 005°18'0 0.1
2015-Feb-01 11:25N 36°09' W 005°18'0 0.0
2015-Feb-01 10:25N 36°09' W 005°18'0 0.0
2015-Feb-01 09:28N 36°09' W 005°18'0 0.0
2015-Feb-01 08:30N 36°09' W 005°18'0 0.0
2015-Feb-01 07:24N 36°09' W 005°18'0 0.0
2015-Feb-01 06:33N 36°09' W 005°18'0 0.0
2015-Feb-01 05:30N 36°09' W 005°18'0 0.0
2015-Feb-01 04:33N 36°09' W 005°18'0 0.0
2015-Feb-01 03:33N 36°09' W 005°18'0 0.1
2015-Feb-01 02:30N 36°09' W 005°18'0 0.0
2015-Feb-01 01:33N 36°09' W 005°18'0 0.1
2015-Feb-01 00:33N 36°09' W 005°18'0 0.0
2015-Jan-31 23:33N 36°09' W 005°18'0 0.0
2015-Jan-31 22:33N 36°09' W 005°18'0 0.0
2015-Jan-31 21:18N 36°09' W 005°18'0 0.0
2015-Jan-31 20:06N 36°09' W 005°18'0 0.0
2015-Jan-31 19:33N 36°09' W 005°18'0 0.1
2015-Jan-31 18:33N 36°09' W 005°18'0 0.0
2015-Jan-31 17:33N 36°09' W 005°18'0 0.1
2015-Jan-31 16:33N 36°09' W 005°18'0 0.0
2015-Jan-31 15:27N 36°09' W 005°18'0 0.0
2015-Jan-31 14:30N 36°09' W 005°18'0 0.0
2015-Jan-31 13:33N 36°09' W 005°18'0 0.0
2015-Jan-31 12:30N 36°09' W 005°18'0 0.1
2015-Jan-31 11:30N 36°09' W 005°18'0 0.0
2015-Jan-31 10:33N 36°09' W 005°18'0 0.1
2015-Jan-31 09:33N 36°09' W 005°18'0 0.1
2015-Jan-31 08:33N 36°09' W 005°18'0 0.0
2015-Jan-31 07:30N 36°09' W 005°18'0 0.1
2015-Jan-31 06:27N 36°09' W 005°18'0 0.0
2015-Jan-31 05:33N 36°09' W 005°18'0 0.0
2015-Jan-31 04:27N 36°09' W 005°18'0 0.0
2015-Jan-31 03:30N 36°09' W 005°18'0 0.0
2015-Jan-31 02:33N 36°09' W 005°18'0 0.0
2015-Jan-31 01:30N 36°09' W 005°18'0 0.0
2015-Jan-31 00:30N 36°09' W 005°18'0 0.0
2015-Jan-30 23:33N 36°09' W 005°18'0 0.0
2015-Jan-30 22:33N 36°09' W 005°18'0 0.1
2015-Jan-30 21:33N 36°09' W 005°18'0 0.1
2015-Jan-30 20:33N 36°09' W 005°18'0 0.0
2015-Jan-30 19:32N 36°09' W 005°18'0 0.0
2015-Jan-30 18:05N 36°09' W 005°18'0 0.0
2015-Jan-30 17:29N 36°09' W 005°18'0 0.0
2015-Jan-30 16:32N 36°09' W 005°18'0 0.0
2015-Jan-30 15:29N 36°09' W 005°18'0 0.0
2015-Jan-30 13:29N 36°09' W 005°18'0 0.0
2015-Jan-30 12:29N 36°09' W 005°18'0 0.0
2015-Jan-30 11:26N 36°09' W 005°18'0 0.2
2015-Jan-30 10:23N 36°09' W 005°18'3 3.6
2015-Jan-30 09:33N 36°09' W 005°14'3 2.2
2015-Jan-30 08:06N 36°11' W 005°11'5 1.8
2015-Jan-30 05:34N 36°09' W 005°16'2 2.4
2015-Jan-30 04:32N 36°08' W 005°13'3 2.4
2015-Jan-30 03:23N 36°09' W 005°16'0 0.2
2015-Jan-30 01:13N 36°09' W 005°16'2 2.5
2015-Jan-30 00:25N 36°07' W 005°16'1 1.6
2015-Jan-29 23:30N 36°07' W 005°17'0 0.1
2015-Jan-29 22:30N 36°07' W 005°17'0 0.1
2015-Jan-29 21:33N 36°07' W 005°18'0 0.0
2015-Jan-29 20:33N 36°07' W 005°18'0 0.1
2015-Jan-29 19:30N 36°07' W 005°17'0 0.1
2015-Jan-29 18:33N 36°07' W 005°18'0 0.1
2015-Jan-29 17:30N 36°07' W 005°17'0 0.1
2015-Jan-29 16:30N 36°07' W 005°18'0 0.0
2015-Jan-29 15:32N 36°07' W 005°18'0 0.0
2015-Jan-29 14:32N 36°07' W 005°18'0 0.0
2015-Jan-29 13:32N 36°07' W 005°18'0 0.0
2015-Jan-29 12:32N 36°07' W 005°18'0 0.0
2015-Jan-29 11:32N 36°07' W 005°18'0 0.0
2015-Jan-29 10:32N 36°07' W 005°18'0 0.0
2015-Jan-29 09:32N 36°07' W 005°18'0 0.1
2015-Jan-29 08:32N 36°07' W 005°18'0 0.0
2015-Jan-29 07:32N 36°07' W 005°18'0 0.0
2015-Jan-29 06:11N 36°07' W 005°18'0 0.1
2015-Jan-29 05:32N 36°07' W 005°18'0 0.0
2015-Jan-29 04:17N 36°07' W 005°18'0 0.0
2015-Jan-29 03:32N 36°07' W 005°18'0 0.0
2015-Jan-29 02:32N 36°07' W 005°18'0 0.0
2015-Jan-29 01:29N 36°07' W 005°18'0 0.0
2015-Jan-29 00:23N 36°07' W 005°18'0 0.1
2015-Jan-28 23:32N 36°07' W 005°18'0 0.0
2015-Jan-28 22:29N 36°07' W 005°18'0 0.0
2015-Jan-28 21:32N 36°07' W 005°18'0 0.0
2015-Jan-28 20:29N 36°07' W 005°18'0 0.0
2015-Jan-28 19:32N 36°07' W 005°18'0 0.1
2015-Jan-28 18:32N 36°07' W 005°18'0 0.0
2015-Jan-28 17:32N 36°07' W 005°18'0 0.0
2015-Jan-28 16:32N 36°07' W 005°18'0 0.0
2015-Jan-28 15:23N 36°07' W 005°18'0 0.0
2015-Jan-28 14:29N 36°07' W 005°18'0 0.0
2015-Jan-28 13:29N 36°07' W 005°18'0 0.0
2015-Jan-28 12:29N 36°07' W 005°18'0 0.0
2015-Jan-28 11:32N 36°07' W 005°18'0 0.0
2015-Jan-28 10:32N 36°07' W 005°18'0 0.0
2015-Jan-28 09:32N 36°07' W 005°18'0 0.1
2015-Jan-28 08:32N 36°07' W 005°18'0 0.0
2015-Jan-28 07:32N 36°07' W 005°18'0 0.1
2015-Jan-28 06:32N 36°07' W 005°18'0 0.0
2015-Jan-28 03:32N 36°07' W 005°18'0 0.0
2015-Jan-28 02:28N 36°07' W 005°18'0 0.0
2015-Jan-28 01:31N 36°07' W 005°18'0 0.0
2015-Jan-28 00:28N 36°07' W 005°18'0 0.0
2015-Jan-27 23:31N 36°07' W 005°18'0 0.0
2015-Jan-27 22:28N 36°07' W 005°18'0 0.0
2015-Jan-27 21:31N 36°07' W 005°18'0 0.0
2015-Jan-27 20:28N 36°07' W 005°18'0 0.0
2015-Jan-27 19:19N 36°07' W 005°18'0 0.0
2015-Jan-27 18:31N 36°07' W 005°18'0 0.0
2015-Jan-27 17:28N 36°07' W 005°18'0 0.1
2015-Jan-27 16:28N 36°07' W 005°18'0 0.1
2015-Jan-27 15:28N 36°07' W 005°18'0 0.1
2015-Jan-27 14:28N 36°07' W 005°18'0 0.0
2015-Jan-27 13:31N 36°07' W 005°18'0 0.0
2015-Jan-27 12:31N 36°07' W 005°18'0 0.0
2015-Jan-27 11:31N 36°07' W 005°18'0 0.0
2015-Jan-27 10:31N 36°07' W 005°18'0 0.0
2015-Jan-27 09:31N 36°07' W 005°18'0 0.1
2015-Jan-27 08:31N 36°07' W 005°18'0 0.1
2015-Jan-27 07:31N 36°07' W 005°18'0 0.1
2015-Jan-27 06:28N 36°07' W 005°18'0 0.0
2015-Jan-27 05:31N 36°07' W 005°18'0 0.1
2015-Jan-27 04:31N 36°07' W 005°18'0 0.1
2015-Jan-27 03:31N 36°07' W 005°18'0 0.1
2015-Jan-27 02:31N 36°07' W 005°18'0 0.0
2015-Jan-27 01:31N 36°07' W 005°18'0 0.1
2015-Jan-27 00:31N 36°07' W 005°18'0 0.1
2015-Jan-26 23:28N 36°07' W 005°18'0 0.1
2015-Jan-26 22:31N 36°07' W 005°18'0 0.2
2015-Jan-26 21:31N 36°07' W 005°18'0 0.0
2015-Jan-26 20:31N 36°07' W 005°18'0 0.1
2015-Jan-26 19:31N 36°07' W 005°18'0 0.1
2015-Jan-26 18:31N 36°07' W 005°18'0 0.1
2015-Jan-26 17:28N 36°07' W 005°18'0 0.0
2015-Jan-26 16:31N 36°07' W 005°18'0 0.0
2015-Jan-26 15:31N 36°07' W 005°18'0 0.2
2015-Jan-26 14:28N 36°07' W 005°18'0 0.1
2015-Jan-26 13:34N 36°07' W 005°18'0 0.0
2015-Jan-26 12:30N 36°07' W 005°18'0 0.0
2015-Jan-26 11:33N 36°07' W 005°18'0 0.0
2015-Jan-26 10:33N 36°07' W 005°18'0 0.0
2015-Jan-26 09:33N 36°07' W 005°18'0 0.0
2015-Jan-26 08:33N 36°07' W 005°18'0 0.1
2015-Jan-26 07:30N 36°07' W 005°18'0 0.1
2015-Jan-26 06:33N 36°07' W 005°18'0 0.1
2015-Jan-26 05:33N 36°07' W 005°18'0 0.1
2015-Jan-26 04:33N 36°07' W 005°18'0 0.0
2015-Jan-26 03:33N 36°07' W 005°18'0 0.0
2015-Jan-26 02:33N 36°07' W 005°18'0 0.1
2015-Jan-26 01:09N 36°07' W 005°18'0 0.1
2015-Jan-26 00:33N 36°07' W 005°18'0 0.0
2015-Jan-25 23:33N 36°07' W 005°18'0 0.0
2015-Jan-25 22:30N 36°07' W 005°18'0 0.0
2015-Jan-25 21:33N 36°07' W 005°18'0 0.1
2015-Jan-25 20:33N 36°07' W 005°18'0 0.0
2015-Jan-25 19:33N 36°07' W 005°18'0 0.0
2015-Jan-25 18:33N 36°07' W 005°18'0 0.1
2015-Jan-25 17:33N 36°07' W 005°18'0 0.0
2015-Jan-25 16:33N 36°07' W 005°18'0 0.0
2015-Jan-25 15:33N 36°07' W 005°18'0 0.1
2015-Jan-25 14:33N 36°07' W 005°18'0 0.1
2015-Jan-25 13:30N 36°07' W 005°18'0 0.0
2015-Jan-25 12:33N 36°07' W 005°18'0 0.0
2015-Jan-25 11:33N 36°07' W 005°18'0 0.0
2015-Jan-25 10:33N 36°07' W 005°18'0 0.1
2015-Jan-25 09:33N 36°07' W 005°18'0 0.1
2015-Jan-25 08:33N 36°07' W 005°18'0 0.0
2015-Jan-25 07:33N 36°07' W 005°18'0 0.1
2015-Jan-25 06:33N 36°07' W 005°18'0 0.0
2015-Jan-25 05:30N 36°07' W 005°18'0 0.0
2015-Jan-25 04:33N 36°07' W 005°18'0 0.2
2015-Jan-25 03:33N 36°07' W 005°18'0 0.0
2015-Jan-25 02:33N 36°07' W 005°18'0 0.1
2015-Jan-25 01:33N 36°07' W 005°18'0 0.0
2015-Jan-25 00:33N 36°07' W 005°18'0 0.1
2015-Jan-24 23:33N 36°07' W 005°18'0 0.1
2015-Jan-24 22:29N 36°07' W 005°18'0 0.1
2015-Jan-24 21:32N 36°07' W 005°18'0 0.0
2015-Jan-24 20:32N 36°07' W 005°18'0 0.1
2015-Jan-24 19:32N 36°07' W 005°18'0 0.0
2015-Jan-24 18:32N 36°07' W 005°18'0 0.0
2015-Jan-24 17:32N 36°07' W 005°18'0 0.0
2015-Jan-24 16:32N 36°07' W 005°18'0 0.2
2015-Jan-24 15:29N 36°07' W 005°18'0 0.1
2015-Jan-24 14:23N 36°07' W 005°18'0 0.0
2015-Jan-24 13:32N 36°07' W 005°18'0 0.1
2015-Jan-24 12:32N 36°07' W 005°18'0 0.1
2015-Jan-24 11:32N 36°07' W 005°18'0 0.2
2015-Jan-24 10:32N 36°07' W 005°18'0 0.2
2015-Jan-24 09:32N 36°07' W 005°18'0 0.2
2015-Jan-24 08:32N 36°07' W 005°18'0 0.1
2015-Jan-24 07:32N 36°07' W 005°18'0 0.0
2015-Jan-24 06:32N 36°07' W 005°18'0 0.0
2015-Jan-24 05:32N 36°07' W 005°18'0 0.1
2015-Jan-24 04:32N 36°07' W 005°18'0 0.1
2015-Jan-24 03:32N 36°07' W 005°18'0 0.0
2015-Jan-24 02:32N 36°07' W 005°18'0 0.0
2015-Jan-24 01:32N 36°07' W 005°18'0 0.0
2015-Jan-24 00:32N 36°07' W 005°18'0 0.0
2015-Jan-23 23:14N 36°07' W 005°18'0 0.0
2015-Jan-23 22:32N 36°07' W 005°18'0 0.1
2015-Jan-23 21:32N 36°07' W 005°18'0 0.1
2015-Jan-23 20:32N 36°07' W 005°18'0 0.0
2015-Jan-23 19:32N 36°07' W 005°18'0 0.0
2015-Jan-23 18:32N 36°07' W 005°18'0 0.1
2015-Jan-23 17:32N 36°07' W 005°18'0 0.0
2015-Jan-23 16:32N 36°07' W 005°18'0 0.1
2015-Jan-23 15:29N 36°07' W 005°18'0 0.3
2015-Jan-23 14:34N 36°07' W 005°18'4 4.1
2015-Jan-23 13:34N 36°03' W 005°17'1111.4
2015-Jan-23 12:33N 35°57' W 005°29'  

Dump ship's entire track history